Time;durP1;ratioP1;P1;durP2;ratioP2;P2;SDS_P1;SDS_P2;PMS_P1;PMS_P2;Temp;Humidity;BMP_temperature;BMP_pressure;BME280_temperature;BME280_humidity;BME280_pressure;Samples;Min_cycle;Max_cycle;Signal;HPM_P1;HPM_P2
2022/01/30 00:00:51;;;;;;;39.17;5.93;;;6.70;96.00;;;;;;5029816;28;20389;-43
2022/01/30 00:03:17;;;;;;;29.48;6.15;;;6.70;96.10;;;;;;5015642;28;20060;-43
2022/01/30 00:05:44;;;;;;;36.72;7.32;;;6.70;96.00;;;;;;5022432;28;20469;-42
2022/01/30 00:08:11;;;;;;;40.78;10.18;;;6.70;95.90;;;;;;5023858;28;20059;-42
2022/01/30 00:10:40;;;;;;;26.92;5.75;;;6.70;95.90;;;;;;5027684;28;20084;-42
2022/01/30 00:13:09;;;;;;;39.50;5.20;;;6.70;96.20;;;;;;5020619;28;20445;-42
2022/01/30 00:15:40;;;;;;;28.23;5.53;;;6.70;95.90;;;;;;5018426;28;20484;-45
2022/01/30 00:18:19;;;;;;;29.70;6.13;;;6.80;95.70;;;;;;5019329;28;20461;-43
2022/01/30 00:20:58;;;;;;;29.73;5.95;;;6.80;95.80;;;;;;5019166;28;20061;-44
2022/01/30 00:23:26;;;;;;;35.22;5.43;;;6.80;95.80;;;;;;5022434;28;20052;-42
2022/01/30 00:25:55;;;;;;;30.13;5.13;;;6.70;95.80;;;;;;5028532;28;20493;-43
2022/01/30 00:28:25;;;;;;;36.58;5.82;;;6.70;95.90;;;;;;5018465;28;20042;-43
2022/01/30 00:30:51;;;;;;;32.75;4.78;;;6.70;95.90;;;;;;5028506;28;20128;-43
2022/01/30 00:33:19;;;;;;;36.70;4.63;;;6.70;96.00;;;;;;5030974;28;20053;-42
2022/01/30 00:35:46;;;;;;;29.25;4.85;;;6.70;96.00;;;;;;5019307;28;20057;-41
2022/01/30 00:38:18;;;;;;;25.42;4.15;;;6.70;96.00;;;;;;5022004;28;20053;-42
2022/01/30 00:40:45;;;;;;;34.80;4.82;;;6.60;96.10;;;;;;5025147;28;20494;-42
2022/01/30 00:43:11;;;;;;;34.17;4.65;;;6.60;96.10;;;;;;5020521;28;20049;-42
2022/01/30 00:45:38;;;;;;;27.65;4.40;;;6.60;96.30;;;;;;5025932;28;20045;-42
2022/01/30 00:48:05;;;;;;;31.63;4.85;;;6.50;96.40;;;;;;5032865;28;20061;-42
2022/01/30 00:50:34;;;;;;;34.65;4.78;;;6.50;96.50;;;;;;5026109;28;20049;-42
2022/01/30 00:53:00;;;;;;;29.42;4.93;;;6.50;96.60;;;;;;5026736;28;20138;-41
2022/01/30 00:55:28;;;;;;;25.52;4.38;;;6.50;96.50;;;;;;5024519;28;20133;-42
2022/01/30 00:57:55;;;;;;;33.03;4.97;;;6.50;96.70;;;;;;5033051;28;20413;-42
2022/01/30 01:00:22;;;;;;;33.08;4.03;;;6.60;96.70;;;;;;5028444;28;20054;-42
2022/01/30 01:02:49;;;;;;;17.95;3.63;;;6.60;97.00;;;;;;5028277;28;20053;-41
2022/01/30 01:05:16;;;;;;;27.65;3.88;;;6.60;97.50;;;;;;5024575;28;20046;-41
2022/01/30 01:07:46;;;;;;;25.58;3.13;;;6.50;97.80;;;;;;5027940;28;20045;-41
2022/01/30 01:10:22;;;;;;;15.40;2.80;;;6.40;97.90;;;;;;5026109;28;20055;-41
2022/01/30 01:13:02;;;;;;;20.75;4.32;;;6.30;98.00;;;;;;5029924;28;20045;-40
2022/01/30 01:23:19;;;;;;;28.77;3.97;;;6.00;99.20;;;;;;5030547;28;20428;-41
2022/01/30 01:23:49;;;;;;;37.83;5.43;;;6.00;99.80;;;;;;5022955;28;20080;-41
2022/01/30 01:26:16;;;;;;;27.30;4.65;;;5.90;99.90;;;;;;5027748;28;20509;-42
2022/01/30 01:28:43;;;;;;;32.60;4.85;;;5.90;99.90;;;;;;5031986;28;20045;-41
2022/01/30 01:31:09;;;;;;;33.00;4.90;;;5.90;99.90;;;;;;5026369;28;20049;-40
2022/01/30 01:33:46;;;;;;;34.53;5.03;;;5.90;99.90;;;;;;5031539;28;20049;-42
2022/01/30 01:36:13;;;;;;;33.30;5.57;;;5.90;99.90;;;;;;5025070;28;20064;-41
2022/01/30 01:38:39;;;;;;;33.28;5.18;;;5.90;99.90;;;;;;5031718;28;20128;-41
2022/01/30 01:41:07;;;;;;;32.05;4.53;;;5.80;99.80;;;;;;5019294;28;20146;-42
2022/01/30 01:43:35;;;;;;;25.13;4.55;;;5.80;99.70;;;;;;5031099;28;20084;-40
2022/01/30 01:46:03;;;;;;;38.40;5.25;;;5.80;99.50;;;;;;5030369;28;20041;-41
2022/01/30 01:48:33;;;;;;;32.10;4.65;;;5.80;99.60;;;;;;5022949;28;20053;-40
2022/01/30 01:51:06;;;;;;;31.10;4.65;;;5.80;99.60;;;;;;5021852;28;20470;-41
2022/01/30 01:53:33;;;;;;;34.38;4.90;;;5.70;99.60;;;;;;5021333;28;20049;-41
2022/01/30 01:56:00;;;;;;;32.95;4.43;;;5.70;99.50;;;;;;5024428;28;20075;-41
2022/01/30 01:58:28;;;;;;;35.13;5.00;;;5.70;99.50;;;;;;5030480;28;20416;-42
2022/01/30 02:00:55;;;;;;;28.13;4.68;;;5.70;99.50;;;;;;5024264;28;20045;-41
2022/01/30 02:03:23;;;;;;;29.48;4.30;;;5.70;99.50;;;;;;5027660;28;20054;-42
2022/01/30 02:05:54;;;;;;;36.90;5.10;;;5.70;99.60;;;;;;5031091;28;20045;-42
2022/01/30 02:08:30;;;;;;;27.30;4.45;;;5.70;99.60;;;;;;5018659;28;20537;-41
2022/01/30 02:11:01;;;;;;;32.42;4.57;;;5.70;99.70;;;;;;5021633;28;20108;-41
2022/01/30 02:13:58;;;;;;;31.73;4.60;;;5.70;99.70;;;;;;5029545;28;20146;-43
2022/01/30 02:24:50;;;;;;;37.50;5.45;;;5.70;99.80;;;;;;5018257;28;20050;-41
2022/01/30 02:27:18;;;;;;;38.80;5.57;;;5.70;99.90;;;;;;5029267;28;20076;-41
2022/01/30 02:29:45;;;;;;;34.42;5.00;;;5.70;99.90;;;;;;5029949;28;20482;-43
2022/01/30 02:32:12;;;;;;;33.03;5.05;;;5.70;99.90;;;;;;5028886;28;20132;-42
2022/01/30 02:34:38;;;;;;;37.20;5.75;;;5.80;99.90;;;;;;5016186;28;20149;-42
2022/01/30 02:37:05;;;;;;;35.10;5.47;;;5.80;99.90;;;;;;5026030;28;20057;-43
2022/01/30 02:39:32;;;;;;;35.70;5.57;;;5.80;99.90;;;;;;5028558;28;20506;-43
2022/01/30 02:42:00;;;;;;;42.65;6.00;;;5.90;99.90;;;;;;5021101;28;20403;-41
2022/01/30 02:44:32;;;;;;;47.20;7.07;;;5.90;99.90;;;;;;5031001;28;20051;-41
2022/01/30 02:47:02;;;;;;;35.60;5.50;;;5.90;99.90;;;;;;5022285;28;20046;-42
2022/01/30 02:49:45;;;;;;;37.47;6.10;;;6.00;99.90;;;;;;5029757;28;20050;-42
2022/01/30 02:52:12;;;;;;;39.92;5.47;;;6.00;99.90;;;;;;5031326;28;20493;-42
2022/01/30 02:54:39;;;;;;;39.60;5.43;;;6.00;99.90;;;;;;5030325;28;20156;-41
2022/01/30 02:57:07;;;;;;;36.45;5.15;;;6.00;99.90;;;;;;5022554;28;20489;-40
2022/01/30 02:59:34;;;;;;;41.08;6.10;;;6.00;99.90;;;;;;5031097;28;20401;-41
2022/01/30 03:02:02;;;;;;;35.63;5.38;;;6.00;99.90;;;;;;5022303;28;20064;-41
2022/01/30 03:04:29;;;;;;;33.08;5.50;;;6.00;99.90;;;;;;5019642;28;20053;-40
2022/01/30 03:06:55;;;;;;;39.65;6.10;;;6.00;99.90;;;;;;5023304;28;20050;-41
2022/01/30 03:09:22;;;;;;;45.28;5.85;;;6.10;99.90;;;;;;5022840;28;20049;-41
2022/01/30 03:11:49;;;;;;;33.15;5.40;;;6.10;99.90;;;;;;5018759;28;20482;-41
2022/01/30 03:14:17;;;;;;;27.13;5.07;;;6.10;99.90;;;;;;5023849;28;20049;-41
2022/01/30 03:16:43;;;;;;;36.80;4.55;;;6.10;99.90;;;;;;5020687;28;20064;-41
2022/01/30 03:19:10;;;;;;;32.22;5.07;;;6.10;99.90;;;;;;5029058;28;20057;-41
2022/01/30 03:21:37;;;;;;;31.50;4.72;;;6.10;99.90;;;;;;5021797;28;20481;-41
2022/01/30 03:24:04;;;;;;;33.80;5.35;;;6.10;99.90;;;;;;5028714;28;20053;-43
2022/01/30 03:26:36;;;;;;;28.80;4.72;;;6.10;99.90;;;;;;5029195;28;20064;-41
2022/01/30 03:29:05;;;;;;;29.85;4.60;;;6.00;99.90;;;;;;5014420;28;20050;-41
2022/01/30 03:31:34;;;;;;;32.75;5.25;;;6.00;99.90;;;;;;5019767;28;20398;-41
2022/01/30 03:34:01;;;;;;;26.38;5.38;;;6.00;99.90;;;;;;5019723;28;20408;-42
2022/01/30 03:36:27;;;;;;;45.47;5.20;;;6.00;99.90;;;;;;5030295;28;20129;-41
2022/01/30 03:38:54;;;;;;;30.42;4.50;;;5.90;99.90;;;;;;5016358;28;20057;-41
2022/01/30 03:41:21;;;;;;;42.50;5.75;;;5.90;99.90;;;;;;5023645;28;20413;-41
2022/01/30 03:43:48;;;;;;;33.17;5.50;;;5.90;99.90;;;;;;5029305;28;20429;-41
2022/01/30 03:46:14;;;;;;;38.83;6.15;;;5.80;99.90;;;;;;5026219;28;20057;-41
2022/01/30 03:48:42;;;;;;;36.72;5.40;;;5.80;99.90;;;;;;5011955;28;20058;-41
2022/01/30 03:51:09;;;;;;;46.65;6.30;;;5.80;99.90;;;;;;5019878;28;20058;-42
2022/01/30 03:53:36;;;;;;;45.22;6.20;;;5.80;99.90;;;;;;5014138;28;20113;-41
2022/01/30 03:56:02;;;;;;;49.97;7.22;;;5.80;99.90;;;;;;5030234;28;20049;-41
2022/01/30 03:58:29;;;;;;;43.97;6.32;;;5.80;99.90;;;;;;5020149;28;20054;-41
2022/01/30 04:00:56;;;;;;;49.10;7.43;;;5.80;99.90;;;;;;5014758;28;20053;-41
2022/01/30 04:03:22;;;;;;;51.80;7.13;;;5.80;99.90;;;;;;5029295;28;20050;-40
2022/01/30 04:05:50;;;;;;;48.03;6.75;;;5.80;99.90;;;;;;5026446;28;20520;-40
2022/01/30 04:08:17;;;;;;;52.08;7.60;;;5.80;99.90;;;;;;5031745;28;20053;-40
2022/01/30 04:10:45;;;;;;;54.13;8.18;;;5.90;99.90;;;;;;5034316;28;20064;-40
2022/01/30 04:13:11;;;;;;;47.03;7.32;;;5.90;99.90;;;;;;5029178;28;20080;-40
2022/01/30 04:15:39;;;;;;;54.65;8.32;;;5.90;99.90;;;;;;5024148;28;20063;-40
2022/01/30 04:18:06;;;;;;;59.28;8.57;;;5.90;99.90;;;;;;5025254;28;20128;-41
2022/01/30 04:20:33;;;;;;;61.80;9.15;;;5.90;99.90;;;;;;5030694;28;20379;-41
2022/01/30 04:23:01;;;;;;;43.95;7.10;;;5.90;99.90;;;;;;5034043;28;20128;-42
2022/01/30 04:25:28;;;;;;;41.53;5.78;;;5.90;99.90;;;;;;5027595;28;20050;-41
2022/01/30 04:27:55;;;;;;;51.67;7.53;;;5.90;99.90;;;;;;5024404;28;20439;-42
2022/01/30 04:30:22;;;;;;;47.10;6.82;;;5.90;99.90;;;;;;5023346;28;20773;-42
2022/01/30 04:32:49;;;;;;;40.17;6.70;;;5.90;99.90;;;;;;5033301;28;20120;-41
2022/01/30 04:35:21;;;;;;;45.97;7.68;;;5.90;99.90;;;;;;5023853;28;20229;-42
2022/01/30 04:38:00;;;;;;;49.42;8.48;;;5.90;99.90;;;;;;5022249;28;20045;-43
2022/01/30 04:57:35;;;;;;;63.75;7.93;;;5.90;99.90;;;;;;5010534;28;20379;-41
2022/01/30 05:00:20;;;;;;;52.33;8.13;;;5.90;99.90;;;;;;5019337;28;20111;-42
2022/01/30 05:02:54;;;;;;;57.58;8.77;;;5.80;99.90;;;;;;5033345;28;20056;-39
2022/01/30 05:05:51;;;;;;;59.92;9.23;;;5.80;99.90;;;;;;5026577;28;20085;-40
2022/01/30 05:08:17;;;;;;;54.28;8.20;;;5.70;99.90;;;;;;5026664;28;20053;-41
2022/01/30 05:10:44;;;;;;;52.08;7.50;;;5.70;99.90;;;;;;5032116;28;20052;-40
2022/01/30 05:13:17;;;;;;;58.10;8.20;;;5.70;99.90;;;;;;5025166;28;20496;-41
2022/01/30 05:15:44;;;;;;;52.47;8.75;;;5.70;99.90;;;;;;5031035;28;20452;-40
2022/01/30 05:18:11;;;;;;;64.47;9.05;;;5.60;99.90;;;;;;5028710;28;20054;-41
2022/01/30 05:20:38;;;;;;;49.42;8.45;;;5.60;99.90;;;;;;5016328;28;20080;-40
2022/01/30 05:23:05;;;;;;;50.80;7.95;;;5.60;99.90;;;;;;5019368;28;20054;-41
2022/01/30 05:25:33;;;;;;;56.30;9.07;;;5.60;99.90;;;;;;5028568;28;20164;-41
2022/01/30 05:28:00;;;;;;;48.45;9.00;;;5.60;99.90;;;;;;5027349;28;20052;-41
2022/01/30 05:30:29;;;;;;;57.15;7.82;;;5.60;99.90;;;;;;5024785;28;20068;-41
2022/01/30 05:32:56;;;;;;;58.42;8.43;;;5.60;99.90;;;;;;5028303;28;20059;-40
2022/01/30 05:35:23;;;;;;;71.13;9.10;;;5.60;99.90;;;;;;5024515;28;20053;-41
2022/01/30 05:37:50;;;;;;;50.00;8.75;;;5.60;99.90;;;;;;5021381;28;20104;-41
2022/01/30 05:40:18;;;;;;;58.95;8.80;;;5.70;99.90;;;;;;5022896;28;20137;-43
2022/01/30 05:42:45;;;;;;;56.80;8.95;;;5.70;99.90;;;;;;5027342;28;20184;-41
2022/01/30 05:45:21;;;;;;;49.70;8.15;;;5.70;99.90;;;;;;5020941;28;20132;-41
2022/01/30 05:47:55;;;;;;;56.67;7.65;;;5.70;99.90;;;;;;5029761;28;20038;-41
2022/01/30 05:50:22;;;;;;;58.65;8.70;;;5.70;99.90;;;;;;5029027;28;20052;-41
2022/01/30 05:52:49;;;;;;;51.65;9.73;;;5.80;99.90;;;;;;5026006;28;20140;-40
2022/01/30 05:55:15;;;;;;;63.72;9.70;;;5.80;99.70;;;;;;5023228;28;20394;-41
2022/01/30 05:57:42;;;;;;;52.65;8.48;;;5.70;99.40;;;;;;5032393;28;20136;-41
2022/01/30 06:00:13;;;;;;;69.78;9.50;;;5.70;99.20;;;;;;5033596;28;20057;-41
2022/01/30 06:02:40;;;;;;;56.80;8.32;;;5.70;98.90;;;;;;5022504;28;20262;-42
2022/01/30 06:05:09;;;;;;;69.75;9.80;;;5.70;98.90;;;;;;5032581;28;20570;-41
2022/01/30 06:07:38;;;;;;;57.30;8.30;;;5.60;98.70;;;;;;5027570;28;20079;-41
2022/01/30 06:10:05;;;;;;;68.18;8.52;;;5.60;98.60;;;;;;5030372;28;20081;-41
2022/01/30 06:12:32;;;;;;;63.08;9.57;;;5.60;98.30;;;;;;5021320;28;20085;-41
2022/01/30 06:14:58;;;;;;;67.28;9.13;;;5.50;98.30;;;;;;5020828;28;20050;-41
2022/01/30 06:17:25;;;;;;;67.80;11.25;;;5.50;98.20;;;;;;5024992;28;20486;-41
2022/01/30 06:19:52;;;;;;;70.82;9.07;;;5.50;98.10;;;;;;5025464;28;20474;-41
2022/01/30 06:22:20;;;;;;;52.38;9.52;;;5.50;98.00;;;;;;5026492;28;20142;-41
2022/01/30 06:24:46;;;;;;;52.22;7.68;;;5.50;97.90;;;;;;5024442;28;20463;-41
2022/01/30 06:27:13;;;;;;;54.28;8.88;;;5.40;97.90;;;;;;5029459;28;20042;-42
2022/01/30 06:29:40;;;;;;;56.30;8.93;;;5.40;97.80;;;;;;5031439;28;20500;-41
2022/01/30 06:32:08;;;;;;;56.30;8.02;;;5.40;97.60;;;;;;5023624;28;20045;-42
2022/01/30 06:34:34;;;;;;;58.03;7.78;;;5.40;97.50;;;;;;5017965;28;20500;-42
2022/01/30 06:37:01;;;;;;;53.13;8.57;;;5.40;97.60;;;;;;5022668;28;20053;-42
2022/01/30 06:39:29;;;;;;;57.67;8.43;;;5.40;97.50;;;;;;5022966;28;20041;-42
2022/01/30 06:41:56;;;;;;;51.58;7.13;;;5.40;97.40;;;;;;5026522;28;20509;-42
2022/01/30 06:44:22;;;;;;;67.63;8.98;;;5.50;97.50;;;;;;5014008;28;20140;-43
2022/01/30 06:46:49;;;;;;;47.20;7.85;;;5.50;97.30;;;;;;5014046;28;20046;-42
2022/01/30 06:49:16;;;;;;;55.78;9.02;;;5.60;97.10;;;;;;5026162;28;20405;-42
2022/01/30 06:51:42;;;;;;;54.03;8.73;;;5.60;96.80;;;;;;5026970;28;20048;-42
2022/01/30 06:54:09;;;;;;;65.35;8.98;;;5.60;96.60;;;;;;5028502;28;20049;-41
2022/01/30 06:56:37;;;;;;;57.60;8.57;;;5.60;96.50;;;;;;5013658;28;20054;-42
2022/01/30 06:59:04;;;;;;;49.33;8.13;;;5.60;96.40;;;;;;5013273;28;20053;-42
2022/01/30 07:01:30;;;;;;;68.22;9.65;;;5.60;96.20;;;;;;5030488;28;20059;-44
2022/01/30 07:03:57;;;;;;;52.47;8.32;;;5.70;96.00;;;;;;5031207;28;20053;-42
2022/01/30 07:06:24;;;;;;;51.67;8.20;;;5.70;95.60;;;;;;5025643;28;20057;-42
2022/01/30 07:08:50;;;;;;;60.28;7.88;;;5.70;95.30;;;;;;5027124;28;20120;-42
2022/01/30 07:11:17;;;;;;;41.28;7.65;;;5.70;94.90;;;;;;5029966;28;20045;-41
2022/01/30 07:13:45;;;;;;;50.45;7.47;;;5.70;94.90;;;;;;5023489;28;20059;-42
2022/01/30 07:16:12;;;;;;;46.47;7.43;;;5.70;94.60;;;;;;5027978;28;20077;-42
2022/01/30 07:18:39;;;;;;;57.17;8.13;;;5.70;94.60;;;;;;5020078;28;20058;-42
2022/01/30 07:21:07;;;;;;;54.92;7.95;;;5.70;94.50;;;;;;5019919;28;20057;-43
2022/01/30 07:23:34;;;;;;;55.80;9.00;;;5.60;94.40;;;;;;5026870;28;20053;-42
2022/01/30 07:26:01;;;;;;;53.83;8.32;;;5.60;94.30;;;;;;5016922;28;20374;-42
2022/01/30 07:28:27;;;;;;;75.35;10.35;;;5.70;94.30;;;;;;5027681;28;20046;-42
2022/01/30 07:30:55;;;;;;;63.42;9.25;;;5.70;94.50;;;;;;5023502;28;20504;-42
2022/01/30 07:33:23;;;;;;;60.58;8.50;;;5.70;94.70;;;;;;5023170;28;20053;-42
2022/01/30 07:35:52;;;;;;;62.40;9.10;;;5.70;94.90;;;;;;5020042;28;20050;-42
2022/01/30 07:38:20;;;;;;;60.00;8.60;;;5.80;95.10;;;;;;5023953;28;20049;-42
2022/01/30 07:40:47;;;;;;;61.53;9.80;;;5.80;95.10;;;;;;5019984;28;20112;-41
2022/01/30 07:43:14;;;;;;;50.80;8.88;;;5.80;95.20;;;;;;5024833;28;20048;-42
2022/01/30 07:45:41;;;;;;;65.43;9.38;;;5.80;95.20;;;;;;5017894;28;20107;-43
2022/01/30 07:48:09;;;;;;;64.20;9.35;;;5.80;95.00;;;;;;5027154;28;20045;-42
2022/01/30 07:50:35;;;;;;;64.95;9.18;;;5.90;95.00;;;;;;5021692;28;20056;-42
2022/01/30 07:53:02;;;;;;;65.45;9.52;;;5.80;94.80;;;;;;5023408;28;20042;-42
2022/01/30 07:55:29;;;;;;;60.67;9.73;;;5.90;94.50;;;;;;5019280;28;20060;-42
2022/01/30 07:57:55;;;;;;;54.40;9.25;;;5.90;94.40;;;;;;5021343;28;20088;-41
2022/01/30 08:00:22;;;;;;;64.50;8.93;;;5.90;94.20;;;;;;5030491;28;20494;-41
2022/01/30 08:02:50;;;;;;;57.33;9.60;;;5.90;94.10;;;;;;5016616;28;20104;-41
2022/01/30 08:05:18;;;;;;;66.00;10.10;;;5.90;94.00;;;;;;5020895;28;20061;-42
2022/01/30 08:07:44;;;;;;;51.53;8.90;;;5.90;93.90;;;;;;5028056;28;20049;-42
2022/01/30 08:10:11;;;;;;;48.35;8.20;;;5.90;94.00;;;;;;5024058;28;20070;-41
2022/01/30 08:12:38;;;;;;;63.35;8.85;;;5.90;93.90;;;;;;5018234;28;20053;-42
2022/01/30 08:15:06;;;;;;;67.13;8.90;;;5.90;93.90;;;;;;5021670;28;20067;-42
2022/01/30 08:17:36;;;;;;;48.65;8.65;;;5.90;94.10;;;;;;5024418;28;20049;-41
2022/01/30 08:20:02;;;;;;;53.50;9.35;;;5.90;94.00;;;;;;5029273;28;20060;-41
2022/01/30 08:22:31;;;;;;;60.80;9.32;;;5.90;94.10;;;;;;5023716;28;20073;-41
2022/01/30 08:24:58;;;;;;;68.25;8.55;;;5.90;93.90;;;;;;5023450;28;20128;-41
2022/01/30 08:27:25;;;;;;;58.42;8.55;;;5.80;93.60;;;;;;5016491;28;20057;-42
2022/01/30 08:29:52;;;;;;;57.33;8.60;;;5.90;93.00;;;;;;5022668;28;20375;-41
2022/01/30 08:32:18;;;;;;;56.80;8.63;;;5.80;92.70;;;;;;5028726;28;20053;-40
2022/01/30 08:34:46;;;;;;;60.90;8.88;;;5.80;92.40;;;;;;5022784;28;20409;-40
2022/01/30 08:37:12;;;;;;;51.53;9.13;;;5.80;92.40;;;;;;5014669;28;20053;-41
2022/01/30 08:39:40;;;;;;;49.35;7.53;;;5.90;92.30;;;;;;5025314;28;20045;-41
2022/01/30 08:42:08;;;;;;;56.28;9.40;;;5.90;92.10;;;;;;5042226;28;20499;-41
2022/01/30 08:44:35;;;;;;;50.60;7.95;;;5.90;91.70;;;;;;5024427;28;20107;-41
2022/01/30 08:47:01;;;;;;;58.38;8.75;;;5.90;91.40;;;;;;5021342;28;20651;-41
2022/01/30 08:49:28;;;;;;;65.82;8.98;;;5.90;91.10;;;;;;5026239;28;20374;-40
2022/01/30 08:51:55;;;;;;;50.75;7.95;;;5.90;91.10;;;;;;5025886;28;20409;-41
2022/01/30 08:54:21;;;;;;;60.05;8.50;;;5.90;91.00;;;;;;5028625;28;20136;-40
2022/01/30 08:56:49;;;;;;;57.90;9.50;;;5.90;90.70;;;;;;5025397;28;20107;-42
2022/01/30 08:59:16;;;;;;;50.25;8.38;;;6.00;90.50;;;;;;5019877;28;20073;-40
2022/01/30 09:01:43;;;;;;;57.40;9.20;;;6.00;90.30;;;;;;5024661;28;20056;-40
2022/01/30 09:04:11;;;;;;;55.65;8.27;;;5.90;90.10;;;;;;5029837;28;20060;-41
2022/01/30 09:06:38;;;;;;;52.60;8.07;;;5.90;90.10;;;;;;5024883;28;20387;-41
2022/01/30 09:09:05;;;;;;;47.58;7.57;;;6.00;90.40;;;;;;5032696;28;20053;-41
2022/01/30 09:11:33;;;;;;;55.60;8.40;;;6.00;90.30;;;;;;5023033;28;20042;-41
2022/01/30 09:14:01;;;;;;;53.20;8.75;;;6.20;90.30;;;;;;5026013;28;20128;-42
2022/01/30 09:16:28;;;;;;;53.80;8.93;;;6.20;90.00;;;;;;5025265;28;20077;-41
2022/01/30 09:18:56;;;;;;;54.50;8.65;;;6.20;90.10;;;;;;5032129;28;20378;-42
2022/01/30 09:21:23;;;;;;;62.17;8.48;;;6.30;90.20;;;;;;5028919;28;20060;-42
2022/01/30 09:23:49;;;;;;;61.70;9.80;;;6.30;90.10;;;;;;5023408;28;20045;-42
2022/01/30 09:26:16;;;;;;;53.03;8.98;;;6.30;90.10;;;;;;5028344;28;20045;-42
2022/01/30 09:28:43;;;;;;;48.63;7.75;;;6.30;90.00;;;;;;5025355;28;20046;-42
2022/01/30 09:31:11;;;;;;;48.28;8.20;;;6.20;90.00;;;;;;5025508;28;20053;-41
2022/01/30 09:33:37;;;;;;;59.75;9.60;;;6.20;89.50;;;;;;5028016;28;20054;-43
2022/01/30 09:36:04;;;;;;;50.28;8.85;;;6.20;89.70;;;;;;5025701;28;20060;-43
2022/01/30 09:38:31;;;;;;;65.35;9.60;;;6.30;89.90;;;;;;5027197;28;20445;-43
2022/01/30 09:40:58;;;;;;;59.67;8.93;;;6.40;89.90;;;;;;5030576;28;20049;-43
2022/01/30 09:43:24;;;;;;;56.72;8.13;;;6.50;89.60;;;;;;5027512;28;20056;-43
2022/01/30 09:45:51;;;;;;;58.45;9.25;;;6.50;89.10;;;;;;5025155;28;20050;-42
2022/01/30 09:48:19;;;;;;;57.83;8.98;;;6.50;89.00;;;;;;5023531;28;20046;-42
2022/01/30 09:50:46;;;;;;;52.03;8.63;;;6.50;89.00;;;;;;5025232;28;20049;-43
2022/01/30 09:53:13;;;;;;;57.72;8.57;;;6.60;88.70;;;;;;5023050;28;20496;-43
2022/01/30 09:55:40;;;;;;;56.72;8.18;;;6.70;88.10;;;;;;5022822;28;20037;-43
2022/01/30 09:58:08;;;;;;;61.67;9.55;;;6.80;87.60;;;;;;5025058;28;20400;-42
2022/01/30 10:00:34;;;;;;;53.03;8.07;;;6.80;87.50;;;;;;5024721;28;20052;-42
2022/01/30 10:03:01;;;;;;;59.97;8.85;;;6.80;87.80;;;;;;5025318;28;20406;-44
2022/01/30 10:05:33;;;;;;;51.22;8.68;;;6.90;87.50;;;;;;5024617;28;20042;-42
2022/01/30 10:08:00;;;;;;;49.88;7.88;;;6.80;86.90;;;;;;5024449;28;20060;-42
2022/01/30 10:10:29;;;;;;;55.45;9.23;;;6.80;87.10;;;;;;5024435;28;20501;-42
2022/01/30 10:13:06;;;;;;;46.65;7.32;;;6.80;87.40;;;;;;5023136;28;20057;-42
2022/01/30 10:15:49;;;;;;;52.17;7.95;;;6.90;87.20;;;;;;5027920;28;20402;-43
2022/01/30 10:18:15;;;;;;;66.78;9.23;;;7.10;87.20;;;;;;5024739;28;20041;-43
2022/01/30 10:20:43;;;;;;;51.13;7.97;;;7.20;87.20;;;;;;5025161;28;20053;-42
2022/01/30 10:23:11;;;;;;;64.88;9.43;;;7.30;86.70;;;;;;5021268;28;20482;-42
2022/01/30 10:25:39;;;;;;;55.25;8.23;;;7.40;86.50;;;;;;5027865;28;20481;-43
2022/01/30 10:28:08;;;;;;;54.97;8.68;;;7.40;86.40;;;;;;5018959;28;20052;-44
2022/01/30 10:30:42;;;;;;;60.25;9.85;;;7.50;86.10;;;;;;5024057;28;20048;-45
2022/01/30 10:33:09;;;;;;;62.60;9.15;;;7.50;85.80;;;;;;5023561;28;20408;-43
2022/01/30 10:35:51;;;;;;;62.50;8.55;;;7.50;86.30;;;;;;5028721;28;20128;-43
2022/01/30 10:38:25;;;;;;;56.30;8.30;;;7.50;86.00;;;;;;5022765;28;20057;-43
2022/01/30 10:40:57;;;;;;;78.70;9.82;;;7.30;86.50;;;;;;5023423;28;20103;-43
2022/01/30 10:43:23;;;;;;;62.00;9.57;;;7.20;87.20;;;;;;5028773;28;20449;-42
2022/01/30 10:45:50;;;;;;;71.25;10.05;;;7.10;88.10;;;;;;5024252;28;20077;-43
2022/01/30 10:48:17;;;;;;;56.88;9.20;;;7.20;88.50;;;;;;5043095;28;20049;-43
2022/01/30 10:50:47;;;;;;;54.28;8.98;;;7.20;88.70;;;;;;5020209;28;20080;-43
2022/01/30 10:53:23;;;;;;;60.10;9.57;;;7.20;88.00;;;;;;5025961;28;20045;-43
2022/01/30 10:55:50;;;;;;;78.05;9.93;;;7.40;87.80;;;;;;5019884;28;20132;-44
2022/01/30 10:58:18;;;;;;;57.40;9.93;;;7.60;87.60;;;;;;5025763;28;20057;-45
2022/01/30 11:00:51;;;;;;;54.45;9.52;;;7.70;86.60;;;;;;5026525;28;20497;-43
2022/01/30 11:03:50;;;;;;;61.75;9.55;;;7.70;86.00;;;;;;5025091;28;20458;-44
2022/01/30 11:06:17;;;;;;;62.92;9.20;;;7.70;84.80;;;;;;5031751;28;20045;-45
2022/01/30 11:08:47;;;;;;;56.17;9.27;;;7.70;85.50;;;;;;5028780;28;20128;-45
2022/01/30 11:11:25;;;;;;;49.60;9.20;;;7.70;85.10;;;;;;5026695;28;20067;-44
2022/01/30 11:14:15;;;;;;;47.63;8.85;;;7.70;85.40;;;;;;5027708;28;20050;-44
2022/01/30 11:17:02;;;;;;;50.80;8.50;;;7.70;84.80;;;;;;5024276;28;20449;-42
2022/01/30 11:19:30;;;;;;;55.80;8.38;;;7.60;85.10;;;;;;5023402;28;21782;-44
2022/01/30 11:21:59;;;;;;;68.60;11.10;;;7.60;85.10;;;;;;5028393;28;20056;-46
2022/01/30 11:24:27;;;;;;;54.80;8.50;;;7.70;85.00;;;;;;5020897;28;20137;-45
2022/01/30 11:26:54;;;;;;;53.83;9.23;;;7.80;85.10;;;;;;5025443;28;20562;-44
2022/01/30 11:29:21;;;;;;;49.10;8.32;;;7.90;85.10;;;;;;5020131;28;20049;-43
2022/01/30 11:31:48;;;;;;;50.03;8.20;;;8.00;85.10;;;;;;5019631;28;20063;-44
2022/01/30 11:34:14;;;;;;;47.83;8.25;;;8.10;84.20;;;;;;5026033;28;20055;-44
2022/01/30 11:36:42;;;;;;;53.65;8.30;;;8.20;82.80;;;;;;5019232;28;20050;-48
2022/01/30 11:39:09;;;;;;;49.53;8.20;;;8.20;81.50;;;;;;5024088;28;20084;-46
2022/01/30 11:41:37;;;;;;;47.45;8.05;;;8.30;80.50;;;;;;5021833;28;20136;-45
2022/01/30 11:44:25;;;;;;;51.38;8.70;;;8.20;79.70;;;;;;5029820;28;20144;-47
2022/01/30 11:47:21;;;;;;;56.70;8.75;;;8.30;78.20;;;;;;5017647;28;20096;-44
2022/01/30 11:49:49;;;;;;;56.58;8.02;;;8.40;79.70;;;;;;5029620;28;20136;-44
2022/01/30 11:52:17;;;;;;;46.08;6.97;;;8.40;79.70;;;;;;5025704;28;20063;-45
2022/01/30 11:54:45;;;;;;;55.60;7.93;;;8.50;79.50;;;;;;5020966;28;20059;-44
2022/01/30 11:57:46;;;;;;;46.67;7.20;;;8.60;79.20;;;;;;5023558;28;20108;-44
2022/01/30 12:00:36;;;;;;;44.63;8.85;;;8.70;78.10;;;;;;5018160;28;20057;-47
2022/01/30 12:03:23;;;;;;;46.22;8.15;;;8.60;78.70;;;;;;5023875;28;20038;-45
2022/01/30 12:05:50;;;;;;;50.72;7.22;;;8.60;76.80;;;;;;5024890;28;20493;-48
2022/01/30 12:08:45;;;;;;;48.85;7.85;;;8.50;78.60;;;;;;5027670;28;21860;-46
2022/01/30 12:11:49;;;;;;;52.45;7.65;;;8.50;76.90;;;;;;5024159;28;20049;-45
2022/01/30 12:14:54;;;;;;;40.15;6.85;;;8.50;77.20;;;;;;5026663;28;20068;-44
2022/01/30 12:17:58;;;;;;;43.92;6.88;;;8.50;76.50;;;;;;5022712;28;20050;-43
2022/01/30 12:20:27;;;;;;;49.05;7.63;;;8.50;75.90;;;;;;5022439;28;20050;-44
2022/01/30 12:22:54;;;;;;;49.15;7.75;;;8.40;76.00;;;;;;5023451;28;20092;-45
2022/01/30 12:25:31;;;;;;;55.13;8.07;;;8.50;76.20;;;;;;5025889;28;20502;-43
2022/01/30 12:28:00;;;;;;;38.45;7.88;;;8.50;75.00;;;;;;5028878;28;20088;-45
2022/01/30 12:30:49;;;;;;;43.15;6.97;;;8.50;75.40;;;;;;5029825;28;20136;-44
2022/01/30 12:33:42;;;;;;;44.05;7.38;;;8.60;74.80;;;;;;5027935;28;20409;-47
2022/01/30 12:36:28;;;;;;;41.10;6.70;;;8.60;75.80;;;;;;5027245;28;20140;-44
2022/01/30 12:39:00;;;;;;;50.53;6.90;;;8.60;74.40;;;;;;5020585;28;20486;-45
2022/01/30 12:41:27;;;;;;;39.10;6.60;;;8.50;76.30;;;;;;5026556;28;20466;-44
2022/01/30 12:43:55;;;;;;;46.50;7.57;;;8.50;76.50;;;;;;5025269;28;20091;-44
2022/01/30 12:46:23;;;;;;;45.15;7.28;;;8.50;76.90;;;;;;5030926;28;20144;-45
2022/01/30 12:49:15;;;;;;;45.45;7.43;;;8.50;76.20;;;;;;5021890;28;20041;-43
2022/01/30 12:51:47;;;;;;;36.80;6.35;;;8.50;74.30;;;;;;5013774;28;20064;-45
2022/01/30 12:54:15;;;;;;;53.95;7.55;;;8.40;75.90;;;;;;5030460;28;20124;-45
2022/01/30 12:56:42;;;;;;;52.53;7.70;;;8.40;76.00;;;;;;5023650;28;20065;-45
2022/01/30 12:59:10;;;;;;;36.63;6.53;;;8.50;76.00;;;;;;5028021;28;20060;-46
2022/01/30 13:01:40;;;;;;;36.50;6.35;;;8.50;76.10;;;;;;5028073;28;20485;-45
2022/01/30 13:04:09;;;;;;;46.83;7.45;;;8.50;75.50;;;;;;5024653;28;20128;-47
2022/01/30 13:06:37;;;;;;;48.20;7.45;;;8.40;76.00;;;;;;5022000;28;20496;-45
2022/01/30 13:09:06;;;;;;;50.47;8.90;;;8.40;75.80;;;;;;5021440;28;20620;-47
2022/01/30 13:11:33;;;;;;;51.75;8.35;;;8.40;75.60;;;;;;5032496;28;20476;-45
2022/01/30 13:14:01;;;;;;;49.90;7.63;;;8.50;76.10;;;;;;5027959;28;20045;-43
2022/01/30 13:16:32;;;;;;;38.50;7.90;;;8.60;75.50;;;;;;5024544;28;20048;-44
2022/01/30 13:19:00;;;;;;;55.92;8.57;;;8.70;75.40;;;;;;5025348;28;20152;-43
2022/01/30 13:21:28;;;;;;;50.15;7.70;;;8.80;75.80;;;;;;5031896;28;20060;-44
2022/01/30 13:23:55;;;;;;;42.38;6.47;;;8.90;75.70;;;;;;5023560;28;20050;-43
2022/01/30 13:26:42;;;;;;;50.40;7.22;;;8.90;75.30;;;;;;5021178;28;20407;-43
2022/01/30 13:29:15;;;;;;;45.40;7.55;;;8.90;74.30;;;;;;5028380;28;20353;-44